BAW486 EGLL-LEBL
Flight info
| Callsign | BAW486 |
|---|---|
| Flight time | N/A |
| Altitude | 27000 |
| Route | MAXIT Y803 MID L151 SITET UN859 LGL/N0447F330 UN859 SOPIL DCT BALAN DCT EVPOK DCT NARAK DCT GAI DCT LOMRA DCT ROCAN DCT PUMAL |
| Aircraft | A320/M-SDE3FGHIRWY/LB1 |
Departure
| Time | N/A |
|---|---|
| Airport | London Heathrow Airport (EGLL) |
Arrival
| Time | 2026-05-04 19:39 |
|---|---|
| Airport | Josep Tarradellas Barcelona-El Prat Airport (LEBL) |
| Time | Latitude | Longitude | Altitude | Speed | Heading |
|---|---|---|---|---|---|
| 2026-05-04 18:32 | 46.85108 | 1.04752 | 32940 ft | 398 kts | 183° |
| 2026-05-04 18:33 | 46.79557 | 1.04504 | 33000 ft | 400 kts | 183° |
| 2026-05-04 18:33 | 46.76803 | 1.04385 | 33416 ft | 399 kts | 183° |
| 2026-05-04 18:33 | 46.74025 | 1.04271 | 33911 ft | 397 kts | 183° |
| 2026-05-04 18:33 | 46.71264 | 1.04164 | 34315 ft | 396 kts | 183° |
| 2026-05-04 18:34 | 46.68504 | 1.04052 | 34612 ft | 397 kts | 183° |
| 2026-05-04 18:34 | 46.65727 | 1.03933 | 34850 ft | 400 kts | 183° |
| 2026-05-04 18:34 | 46.62935 | 1.03810 | 34920 ft | 402 kts | 183° |
| 2026-05-04 18:35 | 46.57356 | 1.03566 | 34928 ft | 402 kts | 183° |
| 2026-05-04 18:35 | 46.51775 | 1.03496 | 34926 ft | 404 kts | 176° |
| 2026-05-04 18:36 | 46.46224 | 1.05134 | 34930 ft | 407 kts | 169° |
| 2026-05-04 18:36 | 46.40730 | 1.06982 | 34925 ft | 407 kts | 170° |
| 2026-05-04 18:37 | 46.35200 | 1.08824 | 34922 ft | 407 kts | 170° |
| 2026-05-04 18:37 | 46.29665 | 1.10660 | 34927 ft | 407 kts | 170° |
| 2026-05-04 18:38 | 46.24177 | 1.12480 | 34925 ft | 407 kts | 170° |
| 2026-05-04 18:38 | 46.18644 | 1.14321 | 34926 ft | 407 kts | 170° |
| 2026-05-04 18:39 | 46.13138 | 1.16149 | 34925 ft | 407 kts | 170° |
| 2026-05-04 18:39 | 46.07621 | 1.17973 | 34929 ft | 406 kts | 170° |
| 2026-05-04 18:40 | 46.02133 | 1.19780 | 34908 ft | 406 kts | 171° |
| 2026-05-04 18:40 | 45.96605 | 1.21593 | 34915 ft | 406 kts | 171° |
| 2026-05-04 18:41 | 45.91106 | 1.23395 | 34917 ft | 406 kts | 171° |
| 2026-05-04 18:41 | 45.85615 | 1.25197 | 34921 ft | 406 kts | 171° |
| 2026-05-04 18:42 | 45.80086 | 1.27009 | 34927 ft | 406 kts | 171° |
| 2026-05-04 18:42 | 45.74593 | 1.28798 | 34927 ft | 406 kts | 171° |
| 2026-05-04 18:43 | 45.69102 | 1.30590 | 34929 ft | 405 kts | 171° |
| 2026-05-04 18:43 | 45.63586 | 1.32389 | 34933 ft | 405 kts | 171° |
| 2026-05-04 18:44 | 45.58097 | 1.34177 | 34934 ft | 405 kts | 171° |
| 2026-05-04 18:44 | 45.52616 | 1.35948 | 34941 ft | 405 kts | 171° |
| 2026-05-04 18:45 | 45.47104 | 1.37719 | 34940 ft | 404 kts | 171° |
| 2026-05-04 18:45 | 45.41638 | 1.39481 | 34943 ft | 404 kts | 171° |
| 2026-05-04 18:46 | 45.36132 | 1.41253 | 34943 ft | 404 kts | 171° |
| 2026-05-04 18:46 | 45.30672 | 1.43013 | 34945 ft | 404 kts | 170° |
| 2026-05-04 18:47 | 45.25172 | 1.44776 | 34951 ft | 404 kts | 171° |
| 2026-05-04 18:47 | 45.19670 | 1.46532 | 34956 ft | 404 kts | 171° |
| 2026-05-04 18:48 | 45.14192 | 1.48282 | 34954 ft | 404 kts | 170° |
| 2026-05-04 18:48 | 45.08739 | 1.50028 | 34955 ft | 404 kts | 170° |
| 2026-05-04 18:49 | 45.03250 | 1.51771 | 34956 ft | 404 kts | 170° |
| 2026-05-04 18:49 | 44.97747 | 1.53507 | 34923 ft | 403 kts | 171° |
| 2026-05-04 18:50 | 44.92301 | 1.55231 | 34937 ft | 403 kts | 171° |
| 2026-05-04 18:50 | 44.86806 | 1.56977 | 34944 ft | 404 kts | 171° |
| 2026-05-04 18:51 | 44.81343 | 1.58701 | 34946 ft | 404 kts | 171° |
| 2026-05-04 18:51 | 44.75839 | 1.60434 | 34951 ft | 403 kts | 171° |
| 2026-05-04 18:52 | 44.70391 | 1.62146 | 34951 ft | 403 kts | 171° |
| 2026-05-04 18:52 | 44.64899 | 1.63866 | 34952 ft | 403 kts | 171° |
| 2026-05-04 18:53 | 44.59449 | 1.65578 | 34934 ft | 403 kts | 171° |
| 2026-05-04 18:53 | 44.53956 | 1.67293 | 34936 ft | 403 kts | 171° |
| 2026-05-04 18:54 | 44.48499 | 1.68991 | 34938 ft | 403 kts | 171° |
| 2026-05-04 18:54 | 44.43033 | 1.70694 | 34941 ft | 403 kts | 171° |
| 2026-05-04 18:55 | 44.37530 | 1.72403 | 34926 ft | 404 kts | 171° |
| 2026-05-04 18:55 | 44.29298 | 1.74946 | 34925 ft | 404 kts | 171° |
| 2026-05-04 18:56 | 44.23787 | 1.76323 | 34933 ft | 403 kts | 174° |
| 2026-05-04 18:56 | 44.18219 | 1.77457 | 34931 ft | 403 kts | 175° |
| 2026-05-04 18:57 | 44.12672 | 1.78603 | 34934 ft | 404 kts | 174° |
| 2026-05-04 18:57 | 44.07103 | 1.79825 | 34940 ft | 404 kts | 174° |
| 2026-05-04 18:58 | 44.01569 | 1.81054 | 34941 ft | 404 kts | 174° |
| 2026-05-04 18:58 | 43.96008 | 1.82283 | 34937 ft | 403 kts | 174° |
| 2026-05-04 18:59 | 43.90473 | 1.83116 | 34936 ft | 402 kts | 178° |
| 2026-05-04 18:59 | 43.84887 | 1.83551 | 34943 ft | 401 kts | 179° |
| 2026-05-04 19:00 | 43.79331 | 1.83972 | 34942 ft | 402 kts | 179° |
| 2026-05-04 19:00 | 43.73723 | 1.84498 | 34938 ft | 403 kts | 178° |
| 2026-05-04 19:01 | 43.68145 | 1.85051 | 34954 ft | 403 kts | 178° |
| 2026-05-04 19:01 | 43.62551 | 1.85602 | 34959 ft | 403 kts | 178° |
| 2026-05-04 19:02 | 43.57876 | 1.86048 | 34952 ft | 404 kts | 179° |
| 2026-05-04 19:02 | 43.51328 | 1.86675 | 34957 ft | 405 kts | 179° |
| 2026-05-04 19:03 | 43.46627 | 1.87125 | 34960 ft | 405 kts | 178° |
| 2026-05-04 19:03 | 43.41026 | 1.87673 | 34948 ft | 406 kts | 179° |
| 2026-05-04 19:04 | 43.35370 | 1.88217 | 34943 ft | 407 kts | 179° |
| 2026-05-04 19:04 | 43.29692 | 1.88760 | 34954 ft | 408 kts | 179° |
| 2026-05-04 19:05 | 43.24040 | 1.89304 | 34961 ft | 409 kts | 179° |
| 2026-05-04 19:05 | 43.18354 | 1.89848 | 34954 ft | 409 kts | 179° |
| 2026-05-04 19:06 | 43.12685 | 1.90380 | 34957 ft | 410 kts | 179° |
| 2026-05-04 19:06 | 43.06972 | 1.90920 | 34947 ft | 411 kts | 179° |
| 2026-05-04 19:07 | 43.01293 | 1.91459 | 34931 ft | 412 kts | 179° |
| 2026-05-04 19:07 | 42.95544 | 1.92005 | 34940 ft | 415 kts | 180° |
| 2026-05-04 19:08 | 42.89758 | 1.92553 | 34952 ft | 416 kts | 180° |
| 2026-05-04 19:08 | 42.84006 | 1.93098 | 34961 ft | 417 kts | 180° |
| 2026-05-04 19:09 | 42.78205 | 1.93637 | 33977 ft | 422 kts | 180° |
| 2026-05-04 19:09 | 42.75234 | 1.93911 | 32925 ft | 429 kts | 179° |
| 2026-05-04 19:09 | 42.72233 | 1.94189 | 31911 ft | 433 kts | 179° |
| 2026-05-04 19:10 | 42.69244 | 1.94470 | 30920 ft | 438 kts | 178° |
| 2026-05-04 19:10 | 42.66193 | 1.94795 | 29901 ft | 443 kts | 176° |
| 2026-05-04 19:10 | 42.63122 | 1.95293 | 29139 ft | 440 kts | 174° |
| 2026-05-04 19:10 | 42.60116 | 1.95910 | 28537 ft | 434 kts | 173° |
| 2026-05-04 19:11 | 42.57134 | 1.96586 | 27859 ft | 429 kts | 173° |
| 2026-05-04 19:11 | 42.54208 | 1.97260 | 27198 ft | 424 kts | 173° |
| 2026-05-04 19:11 | 42.51331 | 1.97901 | 26553 ft | 420 kts | 173° |
| 2026-05-04 19:11 | 42.48454 | 1.98509 | 25909 ft | 417 kts | 173° |
| 2026-05-04 19:12 | 42.45602 | 1.99084 | 25268 ft | 413 kts | 174° |
| 2026-05-04 19:12 | 42.39932 | 2.00205 | 24051 ft | 407 kts | 174° |
| 2026-05-04 19:12 | 42.37237 | 2.01040 | 23910 ft | 395 kts | 165° |
| 2026-05-04 19:13 | 42.34734 | 2.02551 | 23618 ft | 390 kts | 154° |
| 2026-05-04 19:13 | 42.32440 | 2.04491 | 22945 ft | 392 kts | 151° |
| 2026-05-04 19:13 | 42.30170 | 2.06471 | 22551 ft | 385 kts | 151° |
| 2026-05-04 19:13 | 42.27927 | 2.08440 | 22017 ft | 381 kts | 150° |
| 2026-05-04 19:14 | 42.25710 | 2.10391 | 21265 ft | 377 kts | 150° |
| 2026-05-04 19:14 | 42.23539 | 2.12296 | 20525 ft | 374 kts | 150° |
| 2026-05-04 19:14 | 42.21359 | 2.14198 | 19945 ft | 371 kts | 150° |
| 2026-05-04 19:14 | 42.19213 | 2.16059 | 19394 ft | 369 kts | 150° |
| 2026-05-04 19:15 | 42.17055 | 2.17923 | 18989 ft | 364 kts | 151° |
| 2026-05-04 19:15 | 42.14909 | 2.19774 | 18393 ft | 365 kts | 151° |
| 2026-05-04 19:15 | 42.12790 | 2.21607 | 17893 ft | 358 kts | 151° |
| 2026-05-04 19:15 | 42.10712 | 2.23408 | 17171 ft | 357 kts | 151° |
| 2026-05-04 19:16 | 42.08635 | 2.25204 | 16604 ft | 352 kts | 151° |
| 2026-05-04 19:16 | 42.06594 | 2.26968 | 16078 ft | 349 kts | 150° |
| 2026-05-04 19:16 | 42.04560 | 2.28723 | 15552 ft | 346 kts | 150° |
| 2026-05-04 19:16 | 42.02542 | 2.30462 | 15017 ft | 342 kts | 151° |
| 2026-05-04 19:17 | 42.00538 | 2.32190 | 14498 ft | 340 kts | 151° |
| 2026-05-04 19:17 | 41.98565 | 2.33889 | 13989 ft | 338 kts | 151° |
| 2026-05-04 19:17 | 41.96587 | 2.35591 | 13449 ft | 335 kts | 151° |
| 2026-05-04 19:17 | 41.94626 | 2.37280 | 12927 ft | 332 kts | 151° |
| 2026-05-04 19:18 | 41.92702 | 2.38935 | 12434 ft | 330 kts | 152° |
| 2026-05-04 19:18 | 41.90758 | 2.40604 | 11928 ft | 329 kts | 152° |
| 2026-05-04 19:18 | 41.88850 | 2.42243 | 11436 ft | 329 kts | 151° |
| 2026-05-04 19:18 | 41.86923 | 2.43893 | 10925 ft | 329 kts | 151° |
| 2026-05-04 19:19 | 41.84984 | 2.45551 | 10430 ft | 329 kts | 151° |
| 2026-05-04 19:19 | 41.83076 | 2.47181 | 10229 ft | 320 kts | 151° |
| 2026-05-04 19:19 | 41.81241 | 2.48753 | 10115 ft | 308 kts | 152° |
| 2026-05-04 19:19 | 41.79459 | 2.50279 | 9976 ft | 297 kts | 152° |
| 2026-05-04 19:20 | 41.77746 | 2.51746 | 9915 ft | 287 kts | 152° |
| 2026-05-04 19:20 | 41.76059 | 2.53188 | 9921 ft | 288 kts | 152° |
| 2026-05-04 19:20 | 41.74366 | 2.54632 | 9923 ft | 288 kts | 152° |
| 2026-05-04 19:20 | 41.72674 | 2.56071 | 9925 ft | 289 kts | 152° |
| 2026-05-04 19:21 | 41.70977 | 2.57513 | 9927 ft | 289 kts | 152° |
| 2026-05-04 19:21 | 41.69279 | 2.58959 | 9927 ft | 289 kts | 153° |
| 2026-05-04 19:21 | 41.67470 | 2.59995 | 9772 ft | 278 kts | 173° |
| 2026-05-04 19:21 | 41.65574 | 2.59978 | 9359 ft | 270 kts | 197° |
| 2026-05-04 19:22 | 41.63912 | 2.58986 | 9232 ft | 264 kts | 217° |
| 2026-05-04 19:22 | 41.62632 | 2.57247 | 9145 ft | 263 kts | 237° |
| 2026-05-04 19:22 | 41.61892 | 2.55007 | 9062 ft | 265 kts | 250° |
| 2026-05-04 19:22 | 41.61312 | 2.52671 | 8972 ft | 264 kts | 250° |
| 2026-05-04 19:23 | 41.60735 | 2.50349 | 8889 ft | 264 kts | 250° |
| 2026-05-04 19:23 | 41.60157 | 2.48025 | 8810 ft | 263 kts | 250° |
| 2026-05-04 19:23 | 41.59577 | 2.45700 | 8726 ft | 263 kts | 250° |
| 2026-05-04 19:23 | 41.59003 | 2.43410 | 8648 ft | 263 kts | 250° |
| 2026-05-04 19:24 | 41.58423 | 2.41091 | 8570 ft | 263 kts | 250° |
| 2026-05-04 19:24 | 41.57841 | 2.38766 | 8473 ft | 263 kts | 250° |
| 2026-05-04 19:24 | 41.57245 | 2.36451 | 8395 ft | 263 kts | 246° |
| 2026-05-04 19:24 | 41.56380 | 2.34348 | 8311 ft | 261 kts | 238° |
| 2026-05-04 19:25 | 41.55412 | 2.32283 | 8233 ft | 261 kts | 238° |
| 2026-05-04 19:25 | 41.54455 | 2.30241 | 8142 ft | 254 kts | 238° |
| 2026-05-04 19:25 | 41.53486 | 2.28305 | 8010 ft | 246 kts | 229° |
| 2026-05-04 19:25 | 41.52071 | 2.27090 | 7878 ft | 244 kts | 198° |
| 2026-05-04 19:26 | 41.50410 | 2.27076 | 7730 ft | 246 kts | 167° |
| 2026-05-04 19:26 | 41.48835 | 2.27976 | 7610 ft | 247 kts | 160° |
| 2026-05-04 19:26 | 41.47267 | 2.28986 | 7434 ft | 250 kts | 152° |
| 2026-05-04 19:26 | 41.46108 | 2.30676 | 7251 ft | 257 kts | 118° |
| 2026-05-04 19:27 | 41.45825 | 2.33033 | 7065 ft | 263 kts | 81° |
| 2026-05-04 19:27 | 41.46445 | 2.35333 | 6883 ft | 265 kts | 65° |
| 2026-05-04 19:27 | 41.47210 | 2.37569 | 6689 ft | 265 kts | 65° |
| 2026-05-04 19:27 | 41.47981 | 2.39798 | 6494 ft | 264 kts | 65° |
| 2026-05-04 19:28 | 41.48754 | 2.42025 | 6334 ft | 263 kts | 65° |
| 2026-05-04 19:28 | 41.49523 | 2.44244 | 6153 ft | 263 kts | 65° |
| 2026-05-04 19:28 | 41.50284 | 2.46459 | 5981 ft | 262 kts | 65° |
| 2026-05-04 19:28 | 41.50841 | 2.48853 | 5804 ft | 284 kts | 87° |
| 2026-05-04 19:29 | 41.50572 | 2.51428 | 5624 ft | 277 kts | 116° |
| 2026-05-04 19:29 | 41.49494 | 2.53446 | 5443 ft | 261 kts | 147° |
| 2026-05-04 19:29 | 41.47907 | 2.54349 | 5261 ft | 239 kts | 179° |
| 2026-05-04 19:29 | 41.46371 | 2.54086 | 5092 ft | 217 kts | 206° |
| 2026-05-04 19:30 | 41.45172 | 2.52967 | 4912 ft | 206 kts | 231° |
| 2026-05-04 19:30 | 41.44474 | 2.51371 | 4749 ft | 198 kts | 246° |
| 2026-05-04 19:30 | 41.43920 | 2.49713 | 4572 ft | 193 kts | 246° |
| 2026-05-04 19:30 | 41.43378 | 2.48097 | 4379 ft | 188 kts | 246° |
| 2026-05-04 19:31 | 41.42849 | 2.46525 | 4213 ft | 183 kts | 246° |
| 2026-05-04 19:31 | 41.42331 | 2.44992 | 4076 ft | 177 kts | 246° |
| 2026-05-04 19:31 | 41.41828 | 2.43501 | 3997 ft | 176 kts | 245° |
| 2026-05-04 19:31 | 41.41326 | 2.42015 | 4004 ft | 176 kts | 246° |
| 2026-05-04 19:32 | 41.40824 | 2.40531 | 4030 ft | 175 kts | 246° |
| 2026-05-04 19:32 | 41.40338 | 2.39092 | 4021 ft | 164 kts | 246° |
| 2026-05-04 19:32 | 41.39911 | 2.37833 | 4008 ft | 138 kts | 246° |
| 2026-05-04 19:32 | 41.39528 | 2.36703 | 4009 ft | 132 kts | 246° |
| 2026-05-04 19:33 | 41.39152 | 2.35593 | 3966 ft | 131 kts | 245° |
| 2026-05-04 19:33 | 41.38778 | 2.34489 | 3848 ft | 130 kts | 245° |
| 2026-05-04 19:33 | 41.38408 | 2.33396 | 3702 ft | 129 kts | 246° |
| 2026-05-04 19:33 | 41.38040 | 2.32311 | 3546 ft | 130 kts | 246° |
| 2026-05-04 19:34 | 41.37665 | 2.31206 | 3386 ft | 130 kts | 246° |
| 2026-05-04 19:34 | 41.37293 | 2.30110 | 3211 ft | 129 kts | 246° |
| 2026-05-04 19:34 | 41.36927 | 2.29032 | 3045 ft | 128 kts | 246° |
| 2026-05-04 19:34 | 41.36551 | 2.27923 | 2868 ft | 132 kts | 247° |
| 2026-05-04 19:35 | 41.36173 | 2.26811 | 2699 ft | 133 kts | 246° |
| 2026-05-04 19:35 | 41.35796 | 2.25701 | 2521 ft | 133 kts | 247° |
| 2026-05-04 19:35 | 41.35413 | 2.24576 | 2348 ft | 133 kts | 247° |
| 2026-05-04 19:35 | 41.35029 | 2.23445 | 2161 ft | 135 kts | 247° |
| 2026-05-04 19:36 | 41.34643 | 2.22313 | 1984 ft | 135 kts | 247° |
| 2026-05-04 19:36 | 41.34257 | 2.21177 | 1805 ft | 135 kts | 246° |
| 2026-05-04 19:36 | 41.33869 | 2.20039 | 1638 ft | 135 kts | 246° |
| 2026-05-04 19:36 | 41.33479 | 2.18895 | 1436 ft | 136 kts | 246° |
| 2026-05-04 19:37 | 41.33089 | 2.17751 | 1239 ft | 136 kts | 245° |
| 2026-05-04 19:37 | 41.32699 | 2.16601 | 1023 ft | 136 kts | 246° |
| 2026-05-04 19:37 | 41.32314 | 2.15484 | 893 ft | 134 kts | 246° |
| 2026-05-04 19:37 | 41.31927 | 2.14347 | 726 ft | 135 kts | 248° |
| 2026-05-04 19:38 | 41.31544 | 2.13220 | 555 ft | 131 kts | 246° |
| 2026-05-04 19:38 | 41.31162 | 2.12103 | 329 ft | 133 kts | 245° |
| 2026-05-04 19:38 | 41.30781 | 2.10996 | 177 ft | 131 kts | 246° |
| 2026-05-04 19:38 | 41.30406 | 2.09890 | 28 ft | 128 kts | 246° |
| 2026-05-04 19:39 | 41.30094 | 2.08974 | 18 ft | 86 kts | 246° |
| 2026-05-04 19:39 | 41.29917 | 2.08466 | 29 ft | 37 kts | 244° |
| 2026-05-04 19:39 | 41.29773 | 2.08258 | 19 ft | 23 kts | 221° |
| 2026-05-04 19:39 | 41.29687 | 2.08187 | 18 ft | 11 kts | 186° |
| 2026-05-04 19:40 | 41.29663 | 2.08198 | 19 ft | 0 kts | 147° |
| 2026-05-04 19:40 | 41.29662 | 2.08198 | 18 ft | 1 kts | 147° |
| 2026-05-04 19:41 | 41.29660 | 2.08200 | 18 ft | 0 kts | 147° |
| 2026-05-04 19:41 | 41.29654 | 2.08206 | 17 ft | 2 kts | 147° |
| 2026-05-04 19:41 | 41.29639 | 2.08217 | 17 ft | 3 kts | 150° |
| 2026-05-04 19:41 | 41.29608 | 2.08234 | 20 ft | 7 kts | 159° |
| 2026-05-04 19:42 | 41.29551 | 2.08264 | 16 ft | 10 kts | 159° |
| 2026-05-04 19:42 | 41.29483 | 2.08305 | 17 ft | 11 kts | 154° |
| 2026-05-04 19:42 | 41.29413 | 2.08351 | 19 ft | 11 kts | 153° |
| 2026-05-04 19:42 | 41.29341 | 2.08398 | 21 ft | 12 kts | 155° |
| 2026-05-04 19:43 | 41.29286 | 2.08428 | 23 ft | 2 kts | 159° |
| 2026-05-04 19:43 | 41.29269 | 2.08437 | 22 ft | 3 kts | 159° |
| 2026-05-04 19:43 | 41.29240 | 2.08452 | 21 ft | 6 kts | 159° |
| 2026-05-04 19:43 | 41.29190 | 2.08445 | 20 ft | 9 kts | 202° |
| 2026-05-04 19:44 | 41.29116 | 2.08407 | 19 ft | 13 kts | 200° |
| 2026-05-04 19:44 | 41.29038 | 2.08349 | 19 ft | 11 kts | 241° |
| 2026-05-04 19:44 | 41.29072 | 2.08295 | 19 ft | 6 kts | 342° |
| 2026-05-04 19:44 | 41.29103 | 2.08274 | 19 ft | 3 kts | 328° |
| 2026-05-04 19:45 | 41.29110 | 2.08268 | 19 ft | 0 kts | 330° |